Time;durP1;ratioP1;P1;durP2;ratioP2;P2;SDS_P1;SDS_P2;PMS_P1;PMS_P2;Temp;Humidity;BMP_temperature;BMP_pressure;BME280_temperature;BME280_humidity;BME280_pressure;Samples;Min_cycle;Max_cycle;Signal;HPM_P1;HPM_P2
2023/10/23 00:03:01;;;;;;;4.8;2.3;;;;;;;8.29;89.77;;;;;
2023/10/23 00:14:02;;;;;;;4.8;2.3;;;;;;;8.12;89.59;;;;;
2023/10/23 00:24:01;;;;;;;4.8;2.3;;;;;;;8.02;89.85;;;;;
2023/10/23 00:35:01;;;;;;;3.5;1.9;;;;;;;7.88;90.3;;;;;
2023/10/23 00:46:01;;;;;;;3.5;1.9;;;;;;;8.02;91.77;;;;;
2023/10/23 00:56:01;;;;;;;3.5;1.9;;;;;;;8.81;93.55;;;;;
2023/10/23 01:06:01;;;;;;;4.3;2.2;;;;;;;9.26;92.78;;;;;
2023/10/23 01:17:01;;;;;;;4.3;2.2;;;;;;;9.55;92.16;;;;;
2023/10/23 01:27:01;;;;;;;4.3;2.2;;;;;;;9.65;91.19;;;;;
2023/10/23 01:37:01;;;;;;;5;1.7;;;;;;;9.69;90.68;;;;;
2023/10/23 01:48:01;;;;;;;5;1.7;;;;;;;9.59;89.69;;;;;
2023/10/23 01:59:02;;;;;;;5;1.7;;;;;;;9.63;89.54;;;;;
2023/10/23 02:10:01;;;;;;;4.8;2.3;;;;;;;9.83;89.97;;;;;
2023/10/23 02:21:01;;;;;;;4.8;2.3;;;;;;;9.8;88.79;;;;;
2023/10/23 02:31:02;;;;;;;5.1;2.4;;;;;;;9.79;88.7;;;;;
2023/10/23 02:42:01;;;;;;;5.1;2.4;;;;;;;9.57;88.15;;;;;
2023/10/23 02:52:02;;;;;;;5.1;2.4;;;;;;;9.31;87.61;;;;;
2023/10/23 03:03:01;;;;;;;5.9;2.5;;;;;;;8.95;87.23;;;;;
2023/10/23 03:14:02;;;;;;;5.9;2.5;;;;;;;8.59;87.43;;;;;
2023/10/23 03:24:01;;;;;;;5.9;2.5;;;;;;;8.35;87.89;;;;;
2023/10/23 03:35:03;;;;;;;3.7;2;;;;;;;8.06;89.18;;;;;
2023/10/23 03:45:01;;;;;;;3.7;2;;;;;;;7.93;88.89;;;;;
2023/10/23 03:55:01;;;;;;;3.7;2;;;;;;;7.86;89;;;;;
2023/10/23 04:05:01;;;;;;;4.1;1.9;;;;;;;7.75;89.13;;;;;
2023/10/23 04:16:02;;;;;;;4.1;1.9;;;;;;;7.71;89.85;;;;;
2023/10/23 04:26:01;;;;;;;4.1;1.9;;;;;;;7.68;90;;;;;
2023/10/23 04:37:03;;;;;;;3.4;1.8;;;;;;;7.61;90.25;;;;;
2023/10/23 04:48:02;;;;;;;3.4;1.8;;;;;;;7.62;90.18;;;;;
2023/10/23 04:58:02;;;;;;;3.4;1.8;;;;;;;7.69;90.27;;;;;
2023/10/23 05:08:02;;;;;;;3.8;1.9;;;;;;;7.74;90.61;;;;;
2023/10/23 05:19:01;;;;;;;3.8;1.9;;;;;;;7.96;90.93;;;;;
2023/10/23 05:29:01;;;;;;;3.8;1.9;;;;;;;8.16;91.08;;;;;
2023/10/23 05:40:04;;;;;;;3.5;1.7;;;;;;;8.43;91.26;;;;;
2023/10/23 05:50:04;;;;;;;3.5;1.7;;;;;;;8.65;91.04;;;;;
2023/10/23 06:01:02;;;;;;;3.9;1.9;;;;;;;8.77;90.6;;;;;
2023/10/23 06:11:01;;;;;;;3.9;1.9;;;;;;;9.1;90.88;;;;;
2023/10/23 06:22:02;;;;;;;3.9;1.9;;;;;;;9.41;90.18;;;;;
2023/10/23 06:33:02;;;;;;;7.9;3.8;;;;;;;9.62;89.84;;;;;
2023/10/23 06:43:02;;;;;;;7.9;3.8;;;;;;;9.82;89.63;;;;;
2023/10/23 06:54:03;;;;;;;;;;;;;;;10.18;89.26;;;;;
2023/10/23 07:05:01;;;;;;;8.6;5.5;;;;;;;10.82;89.53;;;;;
2023/10/23 07:15:02;;;;;;;8.6;5.5;;;;;;;11.16;86.88;;;;;
2023/10/23 07:25:02;;;;;;;8.6;5.5;;;;;;;11.55;86.52;;;;;
2023/10/23 07:35:03;;;;;;;9.1;5.1;;;;;;;11.84;85.77;;;;;
2023/10/23 07:46:01;;;;;;;9.1;5.1;;;;;;;12.13;85.01;;;;;
2023/10/23 07:56:04;;;;;;;9.1;5.1;;;;;;;12.7;84.25;;;;;
2023/10/23 08:07:02;;;;;;;8.4;3.9;;;;;;;13.39;83.64;;;;;
2023/10/23 08:17:02;;;;;;;8.4;3.9;;;;;;;13.7;80.64;;;;;
2023/10/23 08:28:02;;;;;;;8.4;3.9;;;;;;;14.31;81.02;;;;;
2023/10/23 08:38:02;;;;;;;4.7;2.4;;;;;;;14.73;76.97;;;;;
2023/10/23 08:48:02;;;;;;;4.7;2.4;;;;;;;14.77;76.43;;;;;
2023/10/23 08:59:01;;;;;;;4.7;2.4;;;;;;;14.82;76.1;;;;;
2023/10/23 09:09:03;;;;;;;7.6;3.8;;;;;;;14.71;76.33;;;;;
2023/10/23 09:20:02;;;;;;;7.6;3.8;;;;;;;14.92;77.37;;;;;
2023/10/23 09:30:03;;;;;;;7.1;3.1;;;;;;;14.98;75.71;;;;;
2023/10/23 09:40:02;;;;;;;7.1;3.1;;;;;;;15.47;72.54;;;;;
2023/10/23 09:50:03;;;;;;;7.1;3.1;;;;;;;15.86;70.88;;;;;
2023/10/23 10:01:03;;;;;;;8.7;3.2;;;;;;;15.99;66.07;;;;;
2023/10/23 10:11:02;;;;;;;8.7;3.2;;;;;;;16.12;67.25;;;;;
2023/10/23 10:22:03;;;;;;;8.7;3.2;;;;;;;16.27;65.87;;;;;
2023/10/23 10:32:05;;;;;;;7.2;3.5;;;;;;;16.39;64.35;;;;;
2023/10/23 10:42:04;;;;;;;7.2;3.5;;;;;;;16.53;64.45;;;;;
2023/10/23 10:53:03;;;;;;;7.2;3.5;;;;;;;16.54;62.63;;;;;
2023/10/23 11:03:02;;;;;;;6.2;2.8;;;;;;;16.94;63.24;;;;;
2023/10/23 11:13:02;;;;;;;6.2;2.8;;;;;;;16.94;67.17;;;;;
2023/10/23 11:23:02;;;;;;;6.2;2.8;;;;;;;17.14;65.07;;;;;
2023/10/23 11:34:02;;;;;;;5.9;2.5;;;;;;;17.34;63.8;;;;;
2023/10/23 11:45:02;;;;;;;5.9;2.5;;;;;;;17.71;62.45;;;;;
2023/10/23 11:55:02;;;;;;;5.9;2.5;;;;;;;17.63;61.68;;;;;
2023/10/23 12:06:03;;;;;;;6.7;2.6;;;;;;;17.71;58.56;;;;;
2023/10/23 12:16:04;;;;;;;6.7;2.6;;;;;;;17.84;59.27;;;;;
2023/10/23 12:27:02;;;;;;;6.7;2.6;;;;;;;17.92;59.47;;;;;
2023/10/23 12:37:02;;;;;;;4.3;2.2;;;;;;;17.92;57.41;;;;;
2023/10/23 12:48:02;;;;;;;4.3;2.2;;;;;;;17.27;58.99;;;;;
2023/10/23 12:59:02;;;;;;;4.3;2.2;;;;;;;17.23;60.53;;;;;
2023/10/23 13:09:02;;;;;;;7.9;2.6;;;;;;;16.87;62.02;;;;;
2023/10/23 13:19:02;;;;;;;7.9;2.6;;;;;;;16.42;64.86;;;;;
2023/10/23 13:30:04;;;;;;;6.8;2.7;;;;;;;16.58;65.58;;;;;
2023/10/23 13:40:07;;;;;;;6.8;2.7;;;;;;;16.7;63.49;;;;;
2023/10/23 13:51:02;;;;;;;6.8;2.7;;;;;;;16.77;63.63;;;;;
2023/10/23 14:01:02;;;;;;;4.7;2.2;;;;;;;16.77;63.38;;;;;
2023/10/23 14:12:02;;;;;;;4.7;2.2;;;;;;;16.66;63.16;;;;;
2023/10/23 14:23:02;;;;;;;4.7;2.2;;;;;;;16.52;61.75;;;;;
2023/10/23 14:34:02;;;;;;;5.6;2.5;;;;;;;16.01;68.13;;;;;
2023/10/23 14:45:04;;;;;;;5.6;2.5;;;;;;;15.6;68.54;;;;;
2023/10/23 14:55:03;;;;;;;5.6;2.5;;;;;;;15.21;69.3;;;;;
2023/10/23 15:06:02;;;;;;;7.8;4.3;;;;;;;14.73;70.16;;;;;
2023/10/23 15:16:03;;;;;;;7.8;4.3;;;;;;;14.29;71.64;;;;;
2023/10/23 15:26:02;;;;;;;7.8;4.3;;;;;;;13.79;72.64;;;;;
2023/10/23 15:37:02;;;;;;;9.8;3.9;;;;;;;13.19;74.41;;;;;
2023/10/23 15:47:03;;;;;;;9.8;3.9;;;;;;;12.69;77.96;;;;;
2023/10/23 15:58:02;;;;;;;9.8;3.9;;;;;;;12.21;79.5;;;;;
2023/10/23 16:09:03;;;;;;;9.9;3.5;;;;;;;11.82;79.53;;;;;
2023/10/23 16:19:02;;;;;;;9.9;3.5;;;;;;;11.47;80.03;;;;;
2023/10/23 16:30:02;;;;;;;8.7;4.9;;;;;;;11.16;80.69;;;;;
2023/10/23 16:40:02;;;;;;;8.7;4.9;;;;;;;10.87;80.99;;;;;
2023/10/23 16:51:03;;;;;;;8.7;4.9;;;;;;;10.64;81.52;;;;;
2023/10/23 17:02:02;;;;;;;19.4;7.6;;;;;;;10.42;82.68;;;;;
2023/10/23 17:12:02;;;;;;;19.4;7.6;;;;;;;10.31;82.62;;;;;
2023/10/23 17:23:03;;;;;;;19.4;7.6;;;;;;;10.16;82.99;;;;;
2023/10/23 17:33:02;;;;;;;16.5;7.6;;;;;;;10.03;83.55;;;;;
2023/10/23 17:43:02;;;;;;;16.5;7.6;;;;;;;9.92;83.78;;;;;
2023/10/23 17:54:02;;;;;;;16.5;7.6;;;;;;;9.8;83.98;;;;;
2023/10/23 18:05:03;;;;;;;17.6;9;;;;;;;9.65;84.09;;;;;
2023/10/23 18:16:02;;;;;;;17.6;9;;;;;;;9.57;84.77;;;;;
2023/10/23 18:27:02;;;;;;;17.6;9;;;;;;;9.4;86.04;;;;;
2023/10/23 18:37:02;;;;;;;14.5;6.5;;;;;;;9.27;85.51;;;;;
2023/10/23 18:48:02;;;;;;;14.5;6.5;;;;;;;9.16;85.7;;;;;
2023/10/23 18:59:02;;;;;;;14.5;6.5;;;;;;;9.01;85.63;;;;;
2023/10/23 19:09:04;;;;;;;8.3;4.4;;;;;;;8.84;86.86;;;;;
2023/10/23 19:19:02;;;;;;;8.3;4.4;;;;;;;8.74;86.69;;;;;
2023/10/23 19:30:02;;;;;;;7.8;4.5;;;;;;;8.69;86.75;;;;;
2023/10/23 19:40:04;;;;;;;7.8;4.5;;;;;;;8.56;86.58;;;;;
2023/10/23 19:51:03;;;;;;;7.8;4.5;;;;;;;8.33;86.15;;;;;
2023/10/23 20:01:02;;;;;;;8.8;4.9;;;;;;;8.16;86.64;;;;;
2023/10/23 20:11:02;;;;;;;8.8;4.9;;;;;;;8.08;86.67;;;;;
2023/10/23 20:22:03;;;;;;;8.8;4.9;;;;;;;7.98;87.45;;;;;
2023/10/23 20:32:03;;;;;;;12.8;7.1;;;;;;;7.84;87;;;;;
2023/10/23 20:43:02;;;;;;;12.8;7.1;;;;;;;7.66;86.97;;;;;
2023/10/23 20:54:03;;;;;;;12.8;7.1;;;;;;;7.51;87.96;;;;;
2023/10/23 21:05:02;;;;;;;15;7.2;;;;;;;7.42;87.9;;;;;
2023/10/23 21:16:02;;;;;;;15;7.2;;;;;;;7.26;88.91;;;;;
2023/10/23 21:26:03;;;;;;;15;7.2;;;;;;;7.22;89.04;;;;;
2023/10/23 21:36:02;;;;;;;15.9;8.9;;;;;;;7.27;89.28;;;;;
2023/10/23 21:47:02;;;;;;;15.9;8.9;;;;;;;7.18;89.13;;;;;
2023/10/23 21:57:02;;;;;;;15.9;8.9;;;;;;;7.03;88.92;;;;;
2023/10/23 22:08:03;;;;;;;15.5;9.2;;;;;;;6.85;88.67;;;;;
2023/10/23 22:18:03;;;;;;;15.5;9.2;;;;;;;6.73;89.11;;;;;
2023/10/23 22:28:02;;;;;;;15.5;9.2;;;;;;;6.59;89.76;;;;;
2023/10/23 22:39:02;;;;;;;15.4;8.3;;;;;;;6.51;89.29;;;;;
2023/10/23 22:49:02;;;;;;;15.4;8.3;;;;;;;6.46;90.23;;;;;
2023/10/23 23:00:03;;;;;;;13.2;8.4;;;;;;;6.51;89.42;;;;;
2023/10/23 23:10:02;;;;;;;13.2;8.4;;;;;;;6.45;88.84;;;;;
2023/10/23 23:20:02;;;;;;;13.2;8.4;;;;;;;6.32;88.63;;;;;
2023/10/23 23:31:02;;;;;;;15.6;7.8;;;;;;;6.18;88.46;;;;;
2023/10/23 23:42:02;;;;;;;15.6;7.8;;;;;;;6.06;89.27;;;;;
2023/10/23 23:52:02;;;;;;;15.6;7.8;;;;;;;6.06;89.8;;;;;
